Nagano, Japan
Current Conditions -  °F | °C
As of 4:00 PM on Tuesday 27 Jan 2015 (Local Time) from RJAF Reporting Station
Moderate Fog Moderate Fog  
Wind Chill:   Ceiling: 2000
Heat Index:   Visibility: 6mi
Dew Point:   Wind: 7mph
Humidity: 81%   Direction: 320°NW
Pressure: 29.83"   Gusts: NA
Location:  36.65°N, 138.18°E
Report Text: RJAF 270700Z 32006KT 9000 VCFG FEW005 SCT015 BKN020 03/M00 Q1010
Loading
Personal Weather Stations






























Interactive Weather Map New forecast layout! Learn more

10-Day Weather Forecast

Advertisements
Track Severe Weather on mobile